Time;durP1;ratioP1;P1;durP2;ratioP2;P2;SDS_P1;SDS_P2;PMS_P1;PMS_P2;Temp;Humidity;BMP_temperature;BMP_pressure;BME280_temperature;BME280_humidity;BME280_pressure;Samples;Min_cycle;Max_cycle;Signal;HPM_P1;HPM_P2
2022/04/27 00:02:23;;;;;;;6.45;6.15;;;;;;;10.24;100.00;100916.41;5054682;28;20028;-62
2022/04/27 00:04:49;;;;;;;6.13;5.90;;;;;;;10.11;100.00;100918.66;5050735;28;20476;-61
2022/04/27 00:07:14;;;;;;;6.65;6.35;;;;;;;10.07;100.00;100921.81;5034370;28;20030;-61
2022/04/27 00:09:40;;;;;;;5.90;5.70;;;;;;;10.01;100.00;100915.34;5052007;28;20037;-61
2022/04/27 00:12:06;;;;;;;6.85;6.55;;;;;;;10.16;100.00;100918.19;5054238;28;20033;-61
2022/04/27 00:14:32;;;;;;;6.15;5.85;;;;;;;10.14;100.00;100930.78;5053118;28;20028;-62
2022/04/27 00:16:58;;;;;;;6.30;6.00;;;;;;;10.10;100.00;100935.56;5054107;28;20027;-62
2022/04/27 00:19:25;;;;;;;6.35;6.05;;;;;;;10.05;100.00;100937.88;5054037;28;20024;-62
2022/04/27 00:21:50;;;;;;;6.80;6.50;;;;;;;10.03;100.00;100946.97;5045525;28;20029;-61
2022/04/27 00:24:17;;;;;;;6.40;6.10;;;;;;;9.85;100.00;100947.09;5054253;28;20138;-61
2022/04/27 00:26:43;;;;;;;6.40;6.10;;;;;;;9.79;100.00;100955.69;5054142;28;20043;-62
2022/04/27 00:29:09;;;;;;;6.50;6.20;;;;;;;9.75;100.00;100957.78;5053811;28;20078;-61
2022/04/27 00:31:34;;;;;;;6.43;6.13;;;;;;;9.66;100.00;100958.75;5052942;28;20496;-62
2022/04/27 00:34:00;;;;;;;6.25;5.95;;;;;;;9.48;100.00;100948.25;5050199;28;20013;-61
2022/04/27 00:36:27;;;;;;;6.90;6.60;;;;;;;9.62;100.00;100947.66;5049889;28;20028;-61
2022/04/27 00:38:52;;;;;;;6.40;6.10;;;;;;;9.67;100.00;100941.88;5053182;28;20459;-62
2022/04/27 00:41:18;;;;;;;6.65;6.35;;;;;;;9.66;100.00;100953.47;5053355;28;20116;-62
2022/04/27 00:43:45;;;;;;;5.95;5.75;;;;;;;9.66;100.00;100948.16;5053598;28;20107;-62
2022/04/27 00:46:11;;;;;;;6.20;5.90;;;;;;;9.66;100.00;100943.69;5053414;28;20238;-61
2022/04/27 00:48:39;;;;;;;6.00;5.80;;;;;;;9.59;100.00;100947.13;5051956;28;20040;-61
2022/04/27 00:51:05;;;;;;;6.32;6.03;;;;;;;9.57;100.00;100946.47;5053295;28;20032;-61
2022/04/27 00:53:32;;;;;;;6.50;6.20;;;;;;;9.50;100.00;100950.72;5053332;28;20772;-61
2022/04/27 00:55:59;;;;;;;6.20;5.90;;;;;;;9.40;100.00;100953.47;5044676;28;20029;-62
2022/04/27 00:58:26;;;;;;;6.57;6.28;;;;;;;9.34;100.00;100954.13;5053265;28;20052;-61
2022/04/27 01:00:55;;;;;;;6.32;6.03;;;;;;;9.28;100.00;100957.38;5050897;28;20025;-61
2022/04/27 01:03:22;;;;;;;6.18;5.88;;;;;;;9.26;100.00;100956.72;5044244;28;20440;-61
2022/04/27 01:05:48;;;;;;;6.30;6.00;;;;;;;9.33;100.00;100953.28;5051406;28;20025;-60
2022/04/27 01:08:16;;;;;;;6.30;6.00;;;;;;;9.30;100.00;100960.69;5053237;28;20024;-62
2022/04/27 01:10:43;;;;;;;6.50;6.20;;;;;;;9.24;100.00;100966.59;5053300;28;20039;-61
2022/04/27 01:13:10;;;;;;;6.20;5.90;;;;;;;9.28;100.00;100970.63;5042456;28;20081;-61
2022/04/27 01:15:39;;;;;;;6.32;6.03;;;;;;;9.21;100.00;100970.41;5062398;28;20057;-61
2022/04/27 01:18:04;;;;;;;6.00;5.78;;;;;;;9.13;100.00;100975.66;5050237;28;20072;-62
2022/04/27 01:20:50;;;;;;;6.20;5.90;;;;;;;9.05;100.00;100967.66;5043676;28;20389;-62
2022/04/27 01:23:16;;;;;;;6.20;5.90;;;;;;;9.03;100.00;100978.41;5051868;28;20045;-61
2022/04/27 01:26:01;;;;;;;6.55;6.25;;;;;;;8.96;100.00;100977.34;5048157;28;20558;-62
2022/04/27 01:28:30;;;;;;;6.75;6.45;;;;;;;8.92;100.00;100965.38;5040064;28;20059;-62
2022/04/27 01:31:02;;;;;;;6.50;6.20;;;;;;;9.05;100.00;100963.19;5060383;28;20032;-61
2022/04/27 01:33:29;;;;;;;6.30;6.00;;;;;;;8.99;100.00;100966.44;5055077;28;20052;-62
2022/04/27 01:35:55;;;;;;;6.40;6.10;;;;;;;8.91;100.00;100969.03;5052613;28;20056;-61
2022/04/27 01:38:21;;;;;;;5.90;5.70;;;;;;;8.94;100.00;100965.22;5052150;28;20075;-62
2022/04/27 01:40:47;;;;;;;6.18;5.88;;;;;;;8.85;100.00;100959.03;5051325;28;20068;-61
2022/04/27 01:43:15;;;;;;;6.30;6.00;;;;;;;8.86;100.00;100968.63;5051282;28;20028;-62
2022/04/27 01:45:42;;;;;;;6.03;5.82;;;;;;;8.76;100.00;100970.56;5046500;28;20032;-62
2022/04/27 01:48:09;;;;;;;6.30;6.00;;;;;;;8.73;100.00;100963.72;5060038;28;20029;-62
2022/04/27 01:50:34;;;;;;;6.80;6.50;;;;;;;8.84;100.00;100966.16;5044540;28;20044;-61
2022/04/27 01:55:43;;;;;;;6.38;6.07;;;;;;;8.85;100.00;100964.34;5051288;28;20500;-61
2022/04/27 01:58:09;;;;;;;6.88;6.57;;;;;;;8.78;100.00;100971.22;5047624;28;20049;-62
2022/04/27 02:00:34;;;;;;;6.50;6.20;;;;;;;8.75;100.00;100971.53;5046148;28;20461;-61
2022/04/27 02:03:00;;;;;;;6.65;6.35;;;;;;;8.69;100.00;100966.84;5036583;28;20033;-61
2022/04/27 02:05:26;;;;;;;6.40;6.10;;;;;;;8.78;100.00;100981.81;5057713;28;20025;-62
2022/04/27 02:07:52;;;;;;;6.50;6.20;;;;;;;8.74;100.00;100981.28;5051886;28;20481;-61
2022/04/27 02:10:17;;;;;;;6.32;6.03;;;;;;;8.54;100.00;100977.13;5052041;28;20039;-61
2022/04/27 02:12:43;;;;;;;6.50;6.20;;;;;;;8.56;100.00;100981.28;5045551;28;20103;-61
2022/04/27 02:15:09;;;;;;;6.22;5.93;;;;;;;8.44;100.00;100985.09;5051619;28;20086;-62
2022/04/27 02:17:35;;;;;;;7.50;7.15;;;;;;;8.60;100.00;100991.56;5049597;28;20037;-62
2022/04/27 02:20:01;;;;;;;6.60;6.30;;;;;;;8.63;100.00;100994.72;5051223;28;20033;-62
2022/04/27 02:22:26;;;;;;;6.95;6.65;;;;;;;8.68;100.00;100995.13;5064537;28;20442;-61
2022/04/27 02:24:52;;;;;;;6.50;6.20;;;;;;;8.61;100.00;100993.22;5051564;28;20020;-62
2022/04/27 02:27:19;;;;;;;6.78;6.47;;;;;;;8.64;100.00;101000.84;5031469;28;20060;-61
2022/04/27 02:29:44;;;;;;;6.63;6.32;;;;;;;8.67;100.00;101000.56;5041021;28;20056;-61
2022/04/27 02:32:10;;;;;;;6.80;6.50;;;;;;;8.74;100.00;101001.59;5052056;28;20473;-62
2022/04/27 02:34:35;;;;;;;6.20;5.90;;;;;;;8.84;100.00;101005.00;5045039;28;20032;-61
2022/04/27 02:37:01;;;;;;;6.40;6.10;;;;;;;8.84;100.00;101005.84;5049519;28;20416;-61
2022/04/27 02:39:26;;;;;;;5.82;5.63;;;;;;;8.90;100.00;101000.94;5051908;28;20078;-60
2022/04/27 02:41:52;;;;;;;6.15;5.85;;;;;;;8.86;100.00;100995.09;5050425;28;20017;-62
2022/04/27 02:44:17;;;;;;;6.28;5.97;;;;;;;8.89;100.00;100989.53;5051481;28;20021;-61
2022/04/27 02:46:43;;;;;;;6.38;6.07;;;;;;;8.82;100.00;100991.13;5034804;28;20471;-61
2022/04/27 02:51:52;;;;;;;6.87;6.57;;;;;;;8.89;100.00;101000.09;5038274;28;20032;-62
2022/04/27 02:54:20;;;;;;;6.70;6.40;;;;;;;8.89;100.00;100986.00;5044373;28;20269;-61
2022/04/27 02:56:46;;;;;;;6.30;6.00;;;;;;;8.89;100.00;100997.47;5061182;28;20041;-61
2022/04/27 02:59:12;;;;;;;6.00;5.80;;;;;;;8.93;100.00;100996.16;5051412;28;20060;-62
2022/04/27 03:01:40;;;;;;;5.70;5.50;;;;;;;8.76;100.00;100992.53;5051000;28;20044;-61
2022/04/27 03:04:07;;;;;;;6.00;5.80;;;;;;;8.68;100.00;101000.41;5050647;28;20040;-60
2022/04/27 03:06:32;;;;;;;6.47;6.18;;;;;;;8.67;100.00;101003.22;5043555;28;20029;-62
2022/04/27 03:08:58;;;;;;;6.20;5.90;;;;;;;8.68;100.00;101016.28;5037953;28;20044;-61
2022/04/27 03:11:23;;;;;;;6.20;5.90;;;;;;;8.66;100.00;101012.09;5048094;28;20032;-62
2022/04/27 03:13:50;;;;;;;5.93;5.72;;;;;;;8.75;100.00;101019.16;5049252;28;20036;-61
2022/04/27 03:16:15;;;;;;;6.07;5.80;;;;;;;8.79;100.00;101021.31;5052454;28;20115;-62
2022/04/27 03:18:42;;;;;;;5.85;5.65;;;;;;;8.67;100.00;101005.84;5055159;28;20052;-62
2022/04/27 03:21:07;;;;;;;6.30;6.00;;;;;;;8.81;100.00;101026.47;5053378;28;20476;-62
2022/04/27 03:23:32;;;;;;;6.28;5.97;;;;;;;8.80;100.00;101024.81;5054271;28;20036;-62
2022/04/27 03:25:58;;;;;;;6.63;6.32;;;;;;;8.93;100.00;101027.91;5054279;28;20035;-62
2022/04/27 03:28:23;;;;;;;6.32;6.03;;;;;;;8.86;100.00;101018.91;5055601;28;20022;-62
2022/04/27 03:30:49;;;;;;;6.40;6.10;;;;;;;8.92;100.00;101028.06;5054473;28;20377;-62
2022/04/27 03:33:16;;;;;;;6.20;5.90;;;;;;;8.92;100.00;101038.66;5072365;28;20046;-63
2022/04/27 03:35:41;;;;;;;6.38;6.07;;;;;;;9.00;100.00;101030.78;5057825;28;20048;-62
2022/04/27 03:38:08;;;;;;;6.60;6.30;;;;;;;9.08;100.00;101029.03;5049047;28;20021;-61
2022/04/27 03:40:34;;;;;;;6.35;6.05;;;;;;;9.12;100.00;101032.22;5056067;28;20029;-62
2022/04/27 03:42:59;;;;;;;6.50;6.20;;;;;;;9.17;100.00;101037.88;5049947;28;20029;-61
2022/04/27 03:45:25;;;;;;;6.55;6.25;;;;;;;9.20;100.00;101048.16;5051498;28;20043;-63
2022/04/27 03:47:51;;;;;;;6.85;6.55;;;;;;;9.22;100.00;101050.66;5050148;28;20048;-63
2022/04/27 03:50:16;;;;;;;6.60;6.30;;;;;;;9.11;100.00;101052.56;5047611;28;20036;-62
2022/04/27 03:52:43;;;;;;;6.72;6.43;;;;;;;9.22;100.00;101056.78;5059073;28;20063;-61
2022/04/27 03:55:10;;;;;;;6.22;5.93;;;;;;;9.26;100.00;101052.03;5052760;28;20136;-61
2022/04/27 03:57:37;;;;;;;6.55;6.25;;;;;;;9.44;100.00;101055.47;5053832;28;20044;-61
2022/04/27 04:00:04;;;;;;;6.72;6.43;;;;;;;9.56;100.00;101059.53;5045827;28;20511;-62
2022/04/27 04:02:30;;;;;;;6.47;6.18;;;;;;;9.71;100.00;101056.31;5035086;28;20033;-62
2022/04/27 04:04:55;;;;;;;6.10;5.82;;;;;;;10.06;100.00;101055.31;5055353;28;20021;-62
2022/04/27 04:07:21;;;;;;;6.22;5.93;;;;;;;10.19;100.00;101061.84;5037964;28;20037;-61
2022/04/27 04:09:46;;;;;;;6.57;6.28;;;;;;;10.56;100.00;101041.31;5046414;28;20040;-62
2022/04/27 04:12:14;;;;;;;6.90;6.60;;;;;;;10.57;100.00;101051.75;5055074;28;20043;-61
2022/04/27 04:14:40;;;;;;;6.50;6.20;;;;;;;10.57;100.00;101053.56;5045493;28;20496;-62
2022/04/27 04:17:05;;;;;;;6.55;6.25;;;;;;;11.81;100.00;101055.13;5053916;28;20051;-62
2022/04/27 04:19:34;;;;;;;6.75;6.45;;;;;;;11.93;97.97;101060.91;5045218;28;20021;-62
2022/04/27 04:22:00;;;;;;;6.97;6.68;;;;;;;12.84;92.27;101063.00;5046323;28;20022;-62
2022/04/27 04:24:26;;;;;;;7.00;6.70;;;;;;;12.45;93.38;101053.25;5046648;28;20025;-62
2022/04/27 04:29:36;;;;;;;6.50;6.20;;;;;;;13.65;84.63;101039.38;5063093;28;20059;-62
2022/04/27 04:32:02;;;;;;;6.43;6.13;;;;;;;13.29;87.04;101042.72;5059297;28;20056;-62
2022/04/27 04:34:27;;;;;;;6.85;6.55;;;;;;;16.87;71.72;101046.13;5064189;28;20534;-61
2022/04/27 04:36:53;;;;;;;6.75;6.45;;;;;;;18.12;65.71;101051.44;5061479;28;20040;-62
2022/04/27 04:39:19;;;;;;;6.95;6.65;;;;;;;15.09;76.50;101063.59;5039324;28;20031;-61
2022/04/27 04:41:45;;;;;;;6.50;6.20;;;;;;;13.66;84.82;101062.38;5051765;28;20025;-63
2022/04/27 04:44:10;;;;;;;6.70;6.40;;;;;;;13.64;85.53;101075.06;5046634;28;20036;-62
2022/04/27 04:46:36;;;;;;;6.70;6.40;;;;;;;13.25;85.65;101070.72;5052302;28;20033;-63
2022/04/27 04:49:01;;;;;;;7.03;6.72;;;;;;;13.25;86.68;101074.22;5047648;28;20392;-62
2022/04/27 04:51:27;;;;;;;7.03;6.72;;;;;;;13.49;86.05;101073.19;5045086;28;20032;-66
2022/04/27 04:53:53;;;;;;;7.28;6.97;;;;;;;12.97;88.31;101073.06;5048833;28;20052;-61
2022/04/27 04:56:19;;;;;;;7.30;7.00;;;;;;;13.11;87.68;101068.81;5047954;28;20033;-61
2022/04/27 04:58:44;;;;;;;6.75;6.45;;;;;;;13.20;87.75;101079.25;5052361;28;20091;-61
2022/04/27 05:01:09;;;;;;;7.60;7.30;;;;;;;13.46;85.53;101084.22;5049404;28;20025;-61
2022/04/27 05:03:37;;;;;;;6.50;6.20;;;;;;;13.74;85.49;101086.31;5047968;28;20106;-62
2022/04/27 05:06:05;;;;;;;6.88;6.57;;;;;;;13.94;83.59;101070.56;5053170;28;20035;-62
2022/04/27 05:08:31;;;;;;;6.90;6.60;;;;;;;14.32;81.80;101081.97;5040834;28;20488;-61
2022/04/27 05:10:56;;;;;;;7.10;6.80;;;;;;;18.91;65.77;101090.63;5052933;28;20036;-62
2022/04/27 05:13:22;;;;;;;6.57;6.28;;;;;;;19.99;60.06;101092.28;5052787;28;20021;-62
2022/04/27 05:15:48;;;;;;;6.80;6.50;;;;;;;20.74;56.33;101095.56;5044416;28;20029;-63
2022/04/27 05:18:14;;;;;;;6.57;6.28;;;;;;;18.55;63.03;101085.81;5043520;28;20515;-62
2022/04/27 05:20:39;;;;;;;6.93;6.63;;;;;;;17.74;66.08;101086.22;5047571;28;20033;-62
2022/04/27 05:23:05;;;;;;;6.75;6.45;;;;;;;16.12;71.07;101077.34;5051916;28;20017;-62
2022/04/27 05:25:33;;;;;;;6.70;6.40;;;;;;;16.09;72.63;101085.78;5052943;28;20116;-62
2022/04/27 05:27:58;;;;;;;7.07;6.78;;;;;;;16.36;71.48;101086.72;5052652;28;20028;-62
2022/04/27 05:33:08;;;;;;;7.28;6.97;;;;;;;15.79;73.07;101095.84;5060701;28;20027;-62
2022/04/27 05:35:41;;;;;;;6.93;6.63;;;;;;;15.94;73.04;101102.78;5046188;28;20032;-62
2022/04/27 05:38:08;;;;;;;7.25;6.95;;;;;;;15.28;74.48;101094.19;5050837;28;20055;-62
2022/04/27 05:40:34;;;;;;;7.20;6.90;;;;;;;14.98;76.55;101095.31;5051502;28;20028;-61
2022/04/27 05:43:00;;;;;;;7.20;6.90;;;;;;;15.01;76.80;101098.44;5051300;28;20033;-62
2022/04/27 05:45:26;;;;;;;6.97;6.68;;;;;;;14.63;78.21;101101.31;5048524;28;20503;-61
2022/04/27 05:47:51;;;;;;;7.35;7.05;;;;;;;14.58;77.67;101111.72;5051877;28;20029;-62
2022/04/27 05:50:17;;;;;;;7.60;7.30;;;;;;;14.57;77.23;101123.41;5048947;28;20059;-61
2022/04/27 05:52:52;;;;;;;7.18;6.88;;;;;;;14.55;77.48;101124.63;5051983;28;20021;-62
2022/04/27 05:55:20;;;;;;;6.90;6.60;;;;;;;14.06;78.10;101133.16;5038780;28;20044;-62
2022/04/27 05:57:46;;;;;;;6.90;6.60;;;;;;;14.20;78.21;101129.66;5046432;28;20103;-62
2022/04/27 06:00:13;;;;;;;6.50;6.20;;;;;;;14.00;78.69;101140.03;5051986;28;20496;-62
2022/04/27 06:02:39;;;;;;;6.85;6.55;;;;;;;14.10;78.60;101148.63;5050501;28;20039;-62
2022/04/27 06:05:07;;;;;;;6.80;6.50;;;;;;;13.98;79.40;101133.22;5051853;28;20741;-61
2022/04/27 06:07:34;;;;;;;6.60;6.30;;;;;;;13.83;78.42;101141.22;5049496;28;20087;-62
2022/04/27 06:09:59;;;;;;;6.72;6.43;;;;;;;13.03;83.86;101132.78;5051863;28;20025;-62
2022/04/27 06:12:30;;;;;;;7.20;6.90;;;;;;;13.04;83.50;101134.44;5040146;28;20039;-62
2022/04/27 06:14:56;;;;;;;7.65;7.35;;;;;;;13.74;81.28;101131.63;5049925;28;20403;-62
2022/04/27 06:17:22;;;;;;;6.90;6.60;;;;;;;13.72;80.41;101137.13;5045442;28;20017;-62
2022/04/27 06:19:47;;;;;;;6.95;6.65;;;;;;;14.07;80.46;101138.28;5043472;28;20024;-63
2022/04/27 06:22:13;;;;;;;6.93;6.63;;;;;;;13.96;79.87;101140.59;5057992;28;20013;-62
2022/04/27 06:24:38;;;;;;;7.10;6.80;;;;;;;13.27;83.16;101127.31;5057195;28;20021;-61
2022/04/27 06:27:04;;;;;;;7.45;7.15;;;;;;;14.45;79.16;101134.72;5050469;28;20506;-62
2022/04/27 06:29:29;;;;;;;6.70;6.40;;;;;;;13.91;79.01;101137.63;5042906;28;20115;-61
2022/04/27 06:31:55;;;;;;;7.85;7.55;;;;;;;14.89;76.03;101143.50;5053796;28;20381;-62
2022/04/27 06:34:20;;;;;;;6.88;6.57;;;;;;;17.64;64.27;101142.16;5056550;28;20102;-62
2022/04/27 06:36:46;;;;;;;6.90;6.60;;;;;;;20.51;55.85;101138.56;5051867;28;20033;-62
2022/04/27 06:39:14;;;;;;;7.18;6.88;;;;;;;22.18;51.63;101135.88;5046905;28;20036;-62
2022/04/27 06:41:40;;;;;;;7.20;6.90;;;;;;;19.80;52.45;101140.69;5058338;28;20380;-62
2022/04/27 06:44:06;;;;;;;7.10;6.80;;;;;;;20.61;54.96;101134.28;5049273;28;20027;-61
2022/04/27 06:46:31;;;;;;;7.07;6.78;;;;;;;19.54;57.42;101140.91;5053727;28;20021;-63
2022/04/27 06:48:57;;;;;;;7.18;6.88;;;;;;;18.33;56.58;101147.03;5050952;28;20040;-63
2022/04/27 06:51:22;;;;;;;7.20;6.90;;;;;;;19.53;54.83;101141.91;5051131;28;20025;-63
2022/04/27 06:53:48;;;;;;;6.90;6.60;;;;;;;20.46;54.83;101151.91;5046814;28;20048;-61
2022/04/27 06:56:16;;;;;;;7.00;6.70;;;;;;;21.56;49.14;101151.69;5056632;28;20055;-61
2022/04/27 06:58:42;;;;;;;7.10;6.80;;;;;;;23.42;42.51;101165.94;5053591;28;20041;-62
2022/04/27 07:01:09;;;;;;;7.40;7.10;;;;;;;21.99;45.10;101162.19;5040592;28;20076;-62
2022/04/27 07:03:36;;;;;;;7.25;6.95;;;;;;;24.83;38.50;101168.34;5058799;28;20033;-62
2022/04/27 07:06:02;;;;;;;7.20;6.90;;;;;;;23.52;39.27;101173.44;5066209;28;20028;-62
2022/04/27 07:08:29;;;;;;;7.13;6.82;;;;;;;20.65;46.22;101164.31;5051883;28;20460;-62
2022/04/27 07:10:55;;;;;;;7.20;6.90;;;;;;;18.91;52.20;101165.88;5053988;28;20033;-62
2022/04/27 07:13:22;;;;;;;6.95;6.65;;;;;;;22.27;45.81;101156.09;5062578;28;20029;-62
2022/04/27 07:15:48;;;;;;;7.10;6.80;;;;;;;24.39;39.59;101171.06;5050605;28;20548;-60
2022/04/27 07:18:13;;;;;;;7.07;6.78;;;;;;;26.63;36.13;101173.09;5056274;28;20103;-60
2022/04/27 07:20:39;;;;;;;7.30;7.00;;;;;;;27.14;35.20;101172.47;5050921;28;20361;-62
2022/04/27 07:23:05;;;;;;;7.30;7.00;;;;;;;22.20;43.24;101164.31;5055461;28;20545;-61
2022/04/27 07:25:31;;;;;;;7.30;7.00;;;;;;;23.49;41.28;101169.31;5057784;28;20108;-62
2022/04/27 07:27:57;;;;;;;7.35;7.05;;;;;;;25.17;37.75;101162.75;5049153;28;20444;-61
2022/04/27 07:30:23;;;;;;;7.20;6.90;;;;;;;25.82;33.88;101161.72;5045882;28;20041;-61
2022/04/27 07:32:49;;;;;;;7.13;6.82;;;;;;;25.35;34.71;101178.72;5060455;28;20060;-62
2022/04/27 07:35:15;;;;;;;7.18;6.88;;;;;;;24.09;36.52;101170.56;5052555;28;20025;-61
2022/04/27 07:37:41;;;;;;;7.00;6.70;;;;;;;26.08;34.15;101170.91;5049803;28;20033;-62
2022/04/27 07:40:12;;;;;;;7.07;6.78;;;;;;;25.51;33.82;101169.63;5066333;28;20036;-63
2022/04/27 07:42:39;;;;;;;7.00;6.70;;;;;;;24.50;34.51;101167.41;5040983;28;20052;-62
2022/04/27 07:45:06;;;;;;;6.90;6.60;;;;;;;23.46;36.69;101166.28;5060371;28;20040;-64
2022/04/27 07:47:42;;;;;;;6.95;6.65;;;;;;;22.99;38.11;101175.47;5051107;28;20029;-62
2022/04/27 07:50:10;;;;;;;7.10;6.80;;;;;;;22.76;39.05;101173.59;5047923;28;20037;-62
2022/04/27 07:52:35;;;;;;;7.20;6.90;;;;;;;21.90;39.36;101163.59;5055423;28;20432;-62
2022/04/27 07:55:01;;;;;;;6.90;6.60;;;;;;;20.77;41.40;101175.16;5044561;28;20029;-63
2022/04/27 07:57:30;;;;;;;7.40;7.10;;;;;;;19.83;44.07;101169.03;5048302;28;20049;-63
2022/04/27 07:59:56;;;;;;;7.78;7.47;;;;;;;17.25;50.94;101159.81;5036526;28;20033;-63
2022/04/27 08:02:21;;;;;;;7.35;7.05;;;;;;;18.39;49.97;101166.88;5036298;28;20021;-63
2022/04/27 08:04:47;;;;;;;7.28;6.97;;;;;;;18.35;48.82;101163.78;5033749;28;20443;-64
2022/04/27 08:07:13;;;;;;;7.20;6.90;;;;;;;19.23;45.74;101171.31;5055639;28;20041;-64
2022/04/27 08:09:38;;;;;;;7.03;6.72;;;;;;;18.33;48.31;101163.16;5045268;28;20216;-63
2022/04/27 08:12:04;;;;;;;7.00;6.70;;;;;;;18.42;48.75;101172.63;5050700;28;20067;-64
2022/04/27 08:14:31;;;;;;;6.88;6.57;;;;;;;16.98;52.63;101169.66;5069007;28;20387;-64
2022/04/27 08:16:59;;;;;;;6.95;6.65;;;;;;;16.56;54.71;101162.66;5062651;28;20511;-63
2022/04/27 08:19:24;;;;;;;7.30;7.00;;;;;;;18.38;50.69;101163.38;5052224;28;20052;-65
2022/04/27 08:21:50;;;;;;;6.90;6.60;;;;;;;18.07;50.61;101158.69;5047976;28;20052;-66
2022/04/27 08:24:19;;;;;;;7.13;6.82;;;;;;;17.66;51.23;101156.19;5048635;28;20037;-65
2022/04/27 08:26:45;;;;;;;7.32;7.03;;;;;;;17.27;53.11;101155.09;5054726;28;20793;-65
2022/04/27 08:29:10;;;;;;;7.05;6.75;;;;;;;19.41;48.21;101149.06;5049241;28;20037;-66
2022/04/27 08:31:36;;;;;;;7.10;6.80;;;;;;;17.66;49.98;101150.81;5048106;28;20031;-62
2022/04/27 08:34:01;;;;;;;6.75;6.45;;;;;;;19.59;46.37;101151.84;5043672;28;20048;-63
2022/04/27 08:36:27;;;;;;;6.88;6.57;;;;;;;20.30;45.01;101150.59;5045941;28;20032;-63
2022/04/27 08:38:52;;;;;;;7.10;6.80;;;;;;;19.33;43.88;101164.44;5056132;28;20065;-64
2022/04/27 08:41:18;;;;;;;7.10;6.80;;;;;;;18.85;45.59;101156.00;5058934;28;20024;-63
2022/04/27 08:43:44;;;;;;;6.90;6.60;;;;;;;18.49;47.53;101162.69;5038962;28;20021;-63
2022/04/27 08:46:12;;;;;;;6.65;6.35;;;;;;;19.81;44.80;101165.75;5052996;28;20429;-63
2022/04/27 08:48:37;;;;;;;7.15;6.85;;;;;;;19.79;43.88;101165.97;5049624;28;20021;-63
2022/04/27 08:51:05;;;;;;;7.20;6.90;;;;;;;19.04;45.31;101173.06;5054684;28;20468;-63
2022/04/27 08:53:31;;;;;;;6.82;6.53;;;;;;;18.60;47.03;101173.84;5053831;28;20104;-63
2022/04/27 08:55:57;;;;;;;6.90;6.60;;;;;;;18.42;47.87;101177.19;5043048;28;20029;-63
2022/04/27 08:58:24;;;;;;;7.18;6.88;;;;;;;17.84;48.46;101169.81;5052005;28;20052;-63
2022/04/27 09:00:50;;;;;;;7.65;7.35;;;;;;;17.57;49.59;101163.59;5061016;28;20021;-64
2022/04/27 09:03:33;;;;;;;6.70;6.40;;;;;;;18.49;47.59;101169.94;5048098;28;20468;-63
2022/04/27 09:06:03;;;;;;;6.75;6.45;;;;;;;16.96;49.84;101162.84;5043355;28;20045;-64
2022/04/27 09:08:43;;;;;;;6.80;6.50;;;;;;;17.40;49.92;101163.16;5058294;28;20028;-63
2022/04/27 09:11:27;;;;;;;7.05;6.75;;;;;;;17.06;50.33;101165.97;5057693;28;20484;-64
2022/04/27 09:14:01;;;;;;;6.88;6.57;;;;;;;17.11;50.16;101158.13;5059847;28;20107;-63
2022/04/27 09:22:11;;;;;;;6.70;6.40;;;;;;;16.37;52.77;101147.28;5057509;28;20078;-62
2022/04/27 09:24:53;;;;;;;7.45;7.15;;;;;;;18.09;48.68;101153.09;5037796;28;20025;-63
2022/04/27 09:27:19;;;;;;;7.65;7.35;;;;;;;17.24;50.13;101152.81;5030640;28;20143;-63
2022/04/27 09:30:01;;;;;;;7.80;7.50;;;;;;;17.77;48.65;101149.38;5030107;28;20032;-63
2022/04/27 09:32:27;;;;;;;7.13;6.82;;;;;;;17.03;50.98;101148.41;5038491;28;20021;-64
2022/04/27 09:34:53;;;;;;;6.68;6.38;;;;;;;17.10;50.45;101154.63;5047869;28;20025;-64
2022/04/27 09:37:21;;;;;;;6.72;6.43;;;;;;;17.79;48.77;101153.53;5044681;28;20116;-64
2022/04/27 09:40:06;;;;;;;7.18;6.88;;;;;;;20.23;43.13;101160.59;5044807;28;20029;-64
2022/04/27 09:42:35;;;;;;;6.90;6.60;;;;;;;19.01;47.30;101165.41;5047288;28;20020;-64
2022/04/27 09:45:20;;;;;;;7.30;7.00;;;;;;;18.72;47.10;101153.34;5052112;28;20039;-64
2022/04/27 09:47:48;;;;;;;6.97;6.68;;;;;;;18.52;47.81;101157.97;5055280;28;20479;-63
2022/04/27 09:50:17;;;;;;;6.85;6.55;;;;;;;18.74;46.91;101149.44;5051124;28;20036;-63
2022/04/27 09:52:44;;;;;;;7.30;7.00;;;;;;;19.66;45.26;101151.78;5045586;28;20025;-64
2022/04/27 09:55:10;;;;;;;7.30;7.00;;;;;;;17.97;44.81;101152.88;5050572;28;20013;-63
2022/04/27 09:57:41;;;;;;;6.95;6.65;;;;;;;17.93;45.01;101147.13;5060215;28;20504;-64
2022/04/27 10:00:09;;;;;;;7.05;6.75;;;;;;;19.03;43.69;101147.22;5040822;28;20618;-63
2022/04/27 10:02:37;;;;;;;7.22;6.93;;;;;;;19.89;42.80;101138.53;5064046;28;20573;-64
2022/04/27 10:05:03;;;;;;;6.93;6.63;;;;;;;20.85;40.73;101126.31;5045064;28;20035;-64
2022/04/27 10:07:32;;;;;;;7.25;6.95;;;;;;;21.07;40.49;101140.13;5043401;28;20400;-66
2022/04/27 10:09:59;;;;;;;6.85;6.55;;;;;;;17.48;47.63;101135.34;5050244;28;20073;-66
2022/04/27 10:12:25;;;;;;;7.95;7.65;;;;;;;17.86;48.61;101130.19;5050067;28;20020;-65
2022/04/27 10:14:50;;;;;;;7.00;6.70;;;;;;;18.94;45.29;101125.13;5064605;28;20021;-66
2022/04/27 10:17:16;;;;;;;7.00;6.70;;;;;;;18.49;46.53;101111.66;5054576;28;20024;-67
2022/04/27 10:19:50;;;;;;;7.13;6.82;;;;;;;17.22;49.98;101117.34;5055016;28;20028;-68
2022/04/27 10:22:32;;;;;;;7.45;7.15;;;;;;;17.72;49.42;101114.31;5060598;28;20051;-66
2022/04/27 10:25:18;;;;;;;6.82;6.53;;;;;;;18.33;48.08;101105.94;5049060;28;20055;-66
2022/04/27 10:27:45;;;;;;;6.68;6.38;;;;;;;17.53;48.94;101124.78;5053137;28;20039;-66
2022/04/27 10:30:12;;;;;;;7.47;7.18;;;;;;;17.01;48.96;101104.09;5068113;28;20074;-66
2022/04/27 10:32:37;;;;;;;7.20;6.90;;;;;;;16.81;50.26;101120.13;5059184;28;20071;-66
2022/04/27 10:35:27;;;;;;;7.15;6.85;;;;;;;16.94;50.98;101122.00;5049200;28;20020;-66
2022/04/27 10:37:59;;;;;;;7.00;6.70;;;;;;;16.53;52.17;101118.34;5047884;28;20043;-65
2022/04/27 10:40:29;;;;;;;6.70;6.40;;;;;;;17.28;50.94;101102.28;5049520;28;20048;-66
2022/04/27 10:43:20;;;;;;;7.22;6.93;;;;;;;17.11;51.58;101091.13;5044551;28;20028;-65
2022/04/27 10:45:49;;;;;;;6.93;6.63;;;;;;;16.91;51.77;101115.22;5048525;28;20036;-64
2022/04/27 10:48:48;;;;;;;7.00;6.70;;;;;;;17.31;51.69;101110.75;5040973;28;20049;-66
2022/04/27 10:51:13;;;;;;;7.35;7.05;;;;;;;17.35;50.10;101122.72;5052018;28;20491;-63
2022/04/27 10:53:41;;;;;;;6.78;6.47;;;;;;;16.96;51.61;101128.81;5049214;28;20026;-64
2022/04/27 10:56:23;;;;;;;7.10;6.80;;;;;;;17.83;48.88;101130.59;5048556;28;20027;-64
2022/04/27 10:58:49;;;;;;;6.60;6.30;;;;;;;17.58;50.71;101132.22;5042842;28;20103;-64
2022/04/27 11:01:35;;;;;;;6.72;6.43;;;;;;;16.85;52.19;101132.09;5055454;28;20446;-64
2022/04/27 11:04:04;;;;;;;7.43;7.13;;;;;;;17.59;49.67;101136.56;5055253;28;20119;-65
2022/04/27 11:06:51;;;;;;;6.95;6.65;;;;;;;18.15;49.30;101134.28;5053993;28;20032;-65
2022/04/27 11:09:25;;;;;;;7.07;6.78;;;;;;;17.55;50.90;101132.63;5039635;28;20432;-65
2022/04/27 11:11:56;;;;;;;6.93;6.63;;;;;;;17.18;53.25;101126.81;5043237;28;20026;-64
2022/04/27 11:14:29;;;;;;;7.03;6.72;;;;;;;17.20;53.16;101119.41;5047540;28;20033;-64
2022/04/27 11:16:55;;;;;;;7.22;6.93;;;;;;;17.92;52.55;101125.84;5048692;28;20068;-65
2022/04/27 11:19:20;;;;;;;6.70;6.40;;;;;;;17.73;52.47;101122.16;5049232;28;20040;-61
2022/04/27 11:21:48;;;;;;;6.90;6.60;;;;;;;17.74;54.36;101115.75;5054965;28;20086;-64
2022/04/27 11:24:15;;;;;;;6.68;6.38;;;;;;;17.76;53.66;101121.72;5050837;28;20159;-65
2022/04/27 11:26:46;;;;;;;7.60;7.30;;;;;;;17.59;54.63;101110.56;5054505;28;20511;-65
2022/04/27 11:29:13;;;;;;;7.35;7.05;;;;;;;17.28;55.44;101107.66;5063682;28;20020;-65
2022/04/27 11:31:42;;;;;;;7.70;7.40;;;;;;;16.97;55.00;101092.97;5047147;28;20114;-65
2022/04/27 11:34:21;;;;;;;6.70;6.40;;;;;;;17.09;56.38;101085.13;5047281;28;20029;-64
2022/04/27 11:36:47;;;;;;;7.10;6.80;;;;;;;17.15;57.85;101084.31;5046997;28;20025;-65
2022/04/27 11:39:25;;;;;;;7.00;6.70;;;;;;;17.75;57.39;101084.38;5055966;28;20037;-64
2022/04/27 11:42:01;;;;;;;7.00;6.70;;;;;;;17.84;55.92;101089.31;5050065;28;20071;-64
2022/04/27 11:44:28;;;;;;;6.40;6.10;;;;;;;18.61;54.23;101089.50;5067364;28;20013;-65